Hyde Park Estates, New Mexico
Current Conditions -  °F | °C
As of 11:53 PM on Wednesday 26 Nov 2014 (Local Time) from KSAF Reporting Station
Clear Clear  
Wind Chill: 32°   Ceiling: Unl
Heat Index: 39°   Visibility: 10mi
Dew Point: 21°   Wind: 10mph
Humidity: 49%   Direction: 360°N
Pressure: 30.43"   Gusts: NA
Location:  35.7017°N, 105.921°W
Report Text: KSAF 270653Z AUTO 36009KT 10SM CLR 04/M06 A3043 RMK AO2 SLP270 T00391061 401221017
Loading
Personal Weather Stations






























Interactive Weather Map New forecast layout! Learn more

10-Day Weather Forecast

Advertisements
Track Severe Weather on mobile